sensor_id;sensor_type;location;lat;lon;timestamp;temperature;humidity
48876;DHT22;34689;51.644;5.618;2022-08-21T00:01:11;17.90;97.20
48876;DHT22;34689;51.644;5.618;2022-08-21T00:03:38;17.90;97.20
48876;DHT22;34689;51.644;5.618;2022-08-21T00:06:04;17.90;97.20
48876;DHT22;34689;51.644;5.618;2022-08-21T00:08:30;17.80;97.20
48876;DHT22;34689;51.644;5.618;2022-08-21T00:10:56;17.80;97.20
48876;DHT22;34689;51.644;5.618;2022-08-21T00:13:22;17.80;97.30
48876;DHT22;34689;51.644;5.618;2022-08-21T00:15:49;17.70;97.30
48876;DHT22;34689;51.644;5.618;2022-08-21T00:18:17;17.70;97.30
48876;DHT22;34689;51.644;5.618;2022-08-21T00:20:45;17.70;97.30
48876;DHT22;34689;51.644;5.618;2022-08-21T00:23:11;17.70;97.30
48876;DHT22;34689;51.644;5.618;2022-08-21T00:25:37;17.70;97.30
48876;DHT22;34689;51.644;5.618;2022-08-21T00:28:03;17.70;97.40
48876;DHT22;34689;51.644;5.618;2022-08-21T00:30:30;17.70;97.40
48876;DHT22;34689;51.644;5.618;2022-08-21T00:32:57;17.70;97.40
48876;DHT22;34689;51.644;5.618;2022-08-21T00:35:28;17.60;97.40
48876;DHT22;34689;51.644;5.618;2022-08-21T00:37:54;17.60;97.40
48876;DHT22;34689;51.644;5.618;2022-08-21T00:40:30;17.60;97.40
48876;DHT22;34689;51.644;5.618;2022-08-21T00:42:56;17.60;97.50
48876;DHT22;34689;51.644;5.618;2022-08-21T00:45:22;17.60;97.50
48876;DHT22;34689;51.644;5.618;2022-08-21T00:47:50;17.50;97.50
48876;DHT22;34689;51.644;5.618;2022-08-21T00:50:16;17.50;97.50
48876;DHT22;34689;51.644;5.618;2022-08-21T00:52:48;17.50;97.50
48876;DHT22;34689;51.644;5.618;2022-08-21T00:55:14;17.50;97.60
48876;DHT22;34689;51.644;5.618;2022-08-21T00:57:48;17.50;97.60
48876;DHT22;34689;51.644;5.618;2022-08-21T01:00:16;17.50;97.60
48876;DHT22;34689;51.644;5.618;2022-08-21T01:02:42;17.40;97.60
48876;DHT22;34689;51.644;5.618;2022-08-21T01:05:09;17.50;97.60
48876;DHT22;34689;51.644;5.618;2022-08-21T01:07:36;17.40;97.60
48876;DHT22;34689;51.644;5.618;2022-08-21T01:10:03;17.40;97.60
48876;DHT22;34689;51.644;5.618;2022-08-21T01:12:29;17.40;97.70
48876;DHT22;34689;51.644;5.618;2022-08-21T01:14:55;17.40;97.70
48876;DHT22;34689;51.644;5.618;2022-08-21T01:17:21;17.30;97.70
48876;DHT22;34689;51.644;5.618;2022-08-21T01:19:48;17.30;97.80
48876;DHT22;34689;51.644;5.618;2022-08-21T01:22:13;17.30;97.80
48876;DHT22;34689;51.644;5.618;2022-08-21T01:24:39;17.30;97.80
48876;DHT22;34689;51.644;5.618;2022-08-21T01:27:05;17.30;97.80
48876;DHT22;34689;51.644;5.618;2022-08-21T01:29:36;17.30;97.80
48876;DHT22;34689;51.644;5.618;2022-08-21T01:32:09;17.30;97.90
48876;DHT22;34689;51.644;5.618;2022-08-21T01:34:37;17.20;97.80
48876;DHT22;34689;51.644;5.618;2022-08-21T01:37:03;17.30;97.80
48876;DHT22;34689;51.644;5.618;2022-08-21T01:39:30;17.20;97.90
48876;DHT22;34689;51.644;5.618;2022-08-21T01:41:55;17.20;97.90
48876;DHT22;34689;51.644;5.618;2022-08-21T01:44:22;17.20;97.90
48876;DHT22;34689;51.644;5.618;2022-08-21T01:46:48;17.20;97.90
48876;DHT22;34689;51.644;5.618;2022-08-21T01:49:14;17.20;97.90
48876;DHT22;34689;51.644;5.618;2022-08-21T01:51:41;17.10;97.90
48876;DHT22;34689;51.644;5.618;2022-08-21T01:54:07;17.20;98.00
48876;DHT22;34689;51.644;5.618;2022-08-21T01:56:41;17.20;97.90
48876;DHT22;34689;51.644;5.618;2022-08-21T01:59:08;17.10;97.90
48876;DHT22;34689;51.644;5.618;2022-08-21T02:01:34;17.10;97.90
48876;DHT22;34689;51.644;5.618;2022-08-21T02:04:00;17.10;98.00
48876;DHT22;34689;51.644;5.618;2022-08-21T02:06:26;17.10;98.00
48876;DHT22;34689;51.644;5.618;2022-08-21T02:08:52;17.00;98.00
48876;DHT22;34689;51.644;5.618;2022-08-21T02:11:18;17.00;98.00
48876;DHT22;34689;51.644;5.618;2022-08-21T02:13:44;17.00;98.00
48876;DHT22;34689;51.644;5.618;2022-08-21T02:16:10;17.00;98.10
48876;DHT22;34689;51.644;5.618;2022-08-21T02:18:36;16.90;98.10
48876;DHT22;34689;51.644;5.618;2022-08-21T02:21:03;16.90;98.10
48876;DHT22;34689;51.644;5.618;2022-08-21T02:23:30;16.90;98.10
48876;DHT22;34689;51.644;5.618;2022-08-21T02:25:58;16.90;98.10
48876;DHT22;34689;51.644;5.618;2022-08-21T02:28:23;16.90;98.10
48876;DHT22;34689;51.644;5.618;2022-08-21T02:30:50;16.90;98.10
48876;DHT22;34689;51.644;5.618;2022-08-21T02:33:16;16.80;98.10
48876;DHT22;34689;51.644;5.618;2022-08-21T02:35:43;16.80;98.20
48876;DHT22;34689;51.644;5.618;2022-08-21T02:38:13;16.80;98.20
48876;DHT22;34689;51.644;5.618;2022-08-21T02:40:40;16.80;98.20
48876;DHT22;34689;51.644;5.618;2022-08-21T02:43:07;16.80;98.20
48876;DHT22;34689;51.644;5.618;2022-08-21T02:45:34;16.70;98.20
48876;DHT22;34689;51.644;5.618;2022-08-21T02:48:04;16.70;98.20
48876;DHT22;34689;51.644;5.618;2022-08-21T02:50:39;16.70;98.30
48876;DHT22;34689;51.644;5.618;2022-08-21T02:53:06;16.70;98.30
48876;DHT22;34689;51.644;5.618;2022-08-21T02:55:35;16.70;98.30
48876;DHT22;34689;51.644;5.618;2022-08-21T02:58:02;16.70;98.30
48876;DHT22;34689;51.644;5.618;2022-08-21T03:00:30;16.70;98.30
48876;DHT22;34689;51.644;5.618;2022-08-21T03:02:58;16.70;98.40
48876;DHT22;34689;51.644;5.618;2022-08-21T03:05:25;16.60;98.40
48876;DHT22;34689;51.644;5.618;2022-08-21T03:07:51;16.60;98.40
48876;DHT22;34689;51.644;5.618;2022-08-21T03:10:21;16.60;98.40
48876;DHT22;34689;51.644;5.618;2022-08-21T03:12:47;16.60;98.40
48876;DHT22;34689;51.644;5.618;2022-08-21T03:15:18;16.50;98.40
48876;DHT22;34689;51.644;5.618;2022-08-21T03:17:45;16.50;98.40
48876;DHT22;34689;51.644;5.618;2022-08-21T03:20:13;16.40;98.50
48876;DHT22;34689;51.644;5.618;2022-08-21T03:22:39;16.40;98.50
48876;DHT22;34689;51.644;5.618;2022-08-21T03:25:06;16.40;98.50
48876;DHT22;34689;51.644;5.618;2022-08-21T03:27:32;16.40;98.50
48876;DHT22;34689;51.644;5.618;2022-08-21T03:30:00;16.30;98.60
48876;DHT22;34689;51.644;5.618;2022-08-21T03:32:26;16.30;98.70
48876;DHT22;34689;51.644;5.618;2022-08-21T03:34:52;16.30;98.70
48876;DHT22;34689;51.644;5.618;2022-08-21T03:37:18;16.20;98.70
48876;DHT22;34689;51.644;5.618;2022-08-21T03:39:44;16.20;98.70
48876;DHT22;34689;51.644;5.618;2022-08-21T03:42:11;16.20;98.70
48876;DHT22;34689;51.644;5.618;2022-08-21T03:44:37;16.20;98.70
48876;DHT22;34689;51.644;5.618;2022-08-21T03:47:05;16.20;98.70
48876;DHT22;34689;51.644;5.618;2022-08-21T03:49:32;16.20;98.70
48876;DHT22;34689;51.644;5.618;2022-08-21T03:51:59;16.20;98.70
48876;DHT22;34689;51.644;5.618;2022-08-21T03:54:25;16.20;98.70
48876;DHT22;34689;51.644;5.618;2022-08-21T03:56:51;16.10;98.70
48876;DHT22;34689;51.644;5.618;2022-08-21T03:59:17;16.10;98.80
48876;DHT22;34689;51.644;5.618;2022-08-21T04:01:57;16.10;98.80
48876;DHT22;34689;51.644;5.618;2022-08-21T04:04:24;16.00;98.80
48876;DHT22;34689;51.644;5.618;2022-08-21T04:06:50;16.10;98.80
48876;DHT22;34689;51.644;5.618;2022-08-21T04:09:19;16.00;98.80
48876;DHT22;34689;51.644;5.618;2022-08-21T04:11:45;16.00;98.90
48876;DHT22;34689;51.644;5.618;2022-08-21T04:14:12;15.90;98.80
48876;DHT22;34689;51.644;5.618;2022-08-21T04:16:39;16.00;98.90
48876;DHT22;34689;51.644;5.618;2022-08-21T04:19:06;15.90;98.90
48876;DHT22;34689;51.644;5.618;2022-08-21T04:21:31;15.90;98.90
48876;DHT22;34689;51.644;5.618;2022-08-21T04:23:57;15.90;98.90
48876;DHT22;34689;51.644;5.618;2022-08-21T04:26:24;15.90;98.90
48876;DHT22;34689;51.644;5.618;2022-08-21T04:28:51;15.90;98.90
48876;DHT22;34689;51.644;5.618;2022-08-21T04:31:18;15.90;98.90
48876;DHT22;34689;51.644;5.618;2022-08-21T04:33:44;15.90;99.20
48876;DHT22;34689;51.644;5.618;2022-08-21T04:36:12;15.80;98.90
48876;DHT22;34689;51.644;5.618;2022-08-21T04:38:41;15.80;98.90
48876;DHT22;34689;51.644;5.618;2022-08-21T04:41:07;15.80;98.90
48876;DHT22;34689;51.644;5.618;2022-08-21T04:43:33;15.80;99.00
48876;DHT22;34689;51.644;5.618;2022-08-21T04:45:58;15.80;99.00
48876;DHT22;34689;51.644;5.618;2022-08-21T04:48:25;15.70;99.00
48876;DHT22;34689;51.644;5.618;2022-08-21T04:55:54;15.60;99.20
48876;DHT22;34689;51.644;5.618;2022-08-21T04:58:22;15.60;99.20
48876;DHT22;34689;51.644;5.618;2022-08-21T05:00:52;15.60;99.20
48876;DHT22;34689;51.644;5.618;2022-08-21T05:03:19;15.60;99.20
48876;DHT22;34689;51.644;5.618;2022-08-21T05:05:45;15.60;99.20
48876;DHT22;34689;51.644;5.618;2022-08-21T05:08:15;15.60;99.20
48876;DHT22;34689;51.644;5.618;2022-08-21T05:10:42;15.60;99.20
48876;DHT22;34689;51.644;5.618;2022-08-21T05:13:10;15.60;99.20
48876;DHT22;34689;51.644;5.618;2022-08-21T05:15:36;15.50;99.20
48876;DHT22;34689;51.644;5.618;2022-08-21T05:18:02;15.50;99.20
48876;DHT22;34689;51.644;5.618;2022-08-21T05:20:28;15.60;99.30
48876;DHT22;34689;51.644;5.618;2022-08-21T05:22:54;15.60;99.20
48876;DHT22;34689;51.644;5.618;2022-08-21T05:25:20;15.60;99.20
48876;DHT22;34689;51.644;5.618;2022-08-21T05:27:46;15.60;99.30
48876;DHT22;34689;51.644;5.618;2022-08-21T05:30:11;15.60;99.30
48876;DHT22;34689;51.644;5.618;2022-08-21T05:32:37;15.50;99.30
48876;DHT22;34689;51.644;5.618;2022-08-21T05:35:06;15.60;99.40
48876;DHT22;34689;51.644;5.618;2022-08-21T05:37:32;15.60;99.50
48876;DHT22;34689;51.644;5.618;2022-08-21T05:39:59;15.60;99.50
48876;DHT22;34689;51.644;5.618;2022-08-21T05:42:27;15.50;99.50
48876;DHT22;34689;51.644;5.618;2022-08-21T05:44:53;15.50;99.60
48876;DHT22;34689;51.644;5.618;2022-08-21T05:47:19;15.50;99.60
48876;DHT22;34689;51.644;5.618;2022-08-21T05:49:44;15.50;99.70
48876;DHT22;34689;51.644;5.618;2022-08-21T05:52:10;15.50;99.70
48876;DHT22;34689;51.644;5.618;2022-08-21T05:54:36;15.40;99.80
48876;DHT22;34689;51.644;5.618;2022-08-21T05:57:03;15.50;99.80
48876;DHT22;34689;51.644;5.618;2022-08-21T05:59:28;15.50;99.80
48876;DHT22;34689;51.644;5.618;2022-08-21T06:01:54;15.50;99.90
48876;DHT22;34689;51.644;5.618;2022-08-21T06:04:20;15.50;99.80
48876;DHT22;34689;51.644;5.618;2022-08-21T06:06:46;15.60;99.90
48876;DHT22;34689;51.644;5.618;2022-08-21T06:09:13;15.60;99.80
48876;DHT22;34689;51.644;5.618;2022-08-21T06:11:39;15.70;99.80
48876;DHT22;34689;51.644;5.618;2022-08-21T06:14:04;15.70;99.80
48876;DHT22;34689;51.644;5.618;2022-08-21T06:16:31;15.80;99.80
48876;DHT22;34689;51.644;5.618;2022-08-21T06:18:57;15.80;99.80
48876;DHT22;34689;51.644;5.618;2022-08-21T06:21:23;15.90;99.90
48876;DHT22;34689;51.644;5.618;2022-08-21T06:23:48;15.90;99.90
48876;DHT22;34689;51.644;5.618;2022-08-21T06:26:14;15.90;99.90
48876;DHT22;34689;51.644;5.618;2022-08-21T06:28:41;15.90;99.90
48876;DHT22;34689;51.644;5.618;2022-08-21T06:31:13;16.00;99.90
48876;DHT22;34689;51.644;5.618;2022-08-21T06:33:39;16.00;99.90
48876;DHT22;34689;51.644;5.618;2022-08-21T06:36:05;16.00;99.90
48876;DHT22;34689;51.644;5.618;2022-08-21T06:38:31;16.00;99.90
48876;DHT22;34689;51.644;5.618;2022-08-21T06:40:57;16.20;99.90
48876;DHT22;34689;51.644;5.618;2022-08-21T06:43:22;16.20;99.90
48876;DHT22;34689;51.644;5.618;2022-08-21T06:45:48;16.20;99.90
48876;DHT22;34689;51.644;5.618;2022-08-21T06:48:14;16.20;99.90
48876;DHT22;34689;51.644;5.618;2022-08-21T06:50:40;16.30;99.90
48876;DHT22;34689;51.644;5.618;2022-08-21T06:53:16;16.40;99.90
48876;DHT22;34689;51.644;5.618;2022-08-21T06:55:42;16.40;99.90
48876;DHT22;34689;51.644;5.618;2022-08-21T06:58:09;16.40;99.90
48876;DHT22;34689;51.644;5.618;2022-08-21T07:00:39;16.50;99.90
48876;DHT22;34689;51.644;5.618;2022-08-21T07:03:05;16.60;99.90
48876;DHT22;34689;51.644;5.618;2022-08-21T07:05:32;16.60;99.90
48876;DHT22;34689;51.644;5.618;2022-08-21T07:07:58;16.60;99.90
48876;DHT22;34689;51.644;5.618;2022-08-21T07:10:25;16.70;99.90
48876;DHT22;34689;51.644;5.618;2022-08-21T07:12:51;16.70;99.90
48876;DHT22;34689;51.644;5.618;2022-08-21T07:15:19;16.80;99.90
48876;DHT22;34689;51.644;5.618;2022-08-21T07:17:44;16.80;99.90
48876;DHT22;34689;51.644;5.618;2022-08-21T07:20:10;16.90;99.90
48876;DHT22;34689;51.644;5.618;2022-08-21T07:22:38;16.90;99.90
48876;DHT22;34689;51.644;5.618;2022-08-21T07:25:05;17.00;99.90
48876;DHT22;34689;51.644;5.618;2022-08-21T07:27:31;17.10;99.90
48876;DHT22;34689;51.644;5.618;2022-08-21T07:29:57;17.10;99.90
48876;DHT22;34689;51.644;5.618;2022-08-21T07:32:23;17.20;99.90
48876;DHT22;34689;51.644;5.618;2022-08-21T07:34:49;17.30;99.90
48876;DHT22;34689;51.644;5.618;2022-08-21T07:37:15;17.40;99.90
48876;DHT22;34689;51.644;5.618;2022-08-21T07:39:41;17.40;99.90
48876;DHT22;34689;51.644;5.618;2022-08-21T07:42:06;17.50;99.90
48876;DHT22;34689;51.644;5.618;2022-08-21T07:44:32;17.60;99.90
48876;DHT22;34689;51.644;5.618;2022-08-21T07:47:00;17.60;99.90
48876;DHT22;34689;51.644;5.618;2022-08-21T07:49:27;17.70;99.90
48876;DHT22;34689;51.644;5.618;2022-08-21T07:51:52;17.70;99.90
48876;DHT22;34689;51.644;5.618;2022-08-21T07:54:18;17.80;99.90
48876;DHT22;34689;51.644;5.618;2022-08-21T07:56:44;17.80;99.90
48876;DHT22;34689;51.644;5.618;2022-08-21T07:59:09;17.90;99.90
48876;DHT22;34689;51.644;5.618;2022-08-21T08:01:35;17.90;99.90
48876;DHT22;34689;51.644;5.618;2022-08-21T08:04:01;18.00;99.90
48876;DHT22;34689;51.644;5.618;2022-08-21T08:06:29;18.00;99.90
48876;DHT22;34689;51.644;5.618;2022-08-21T08:08:55;18.10;99.90
48876;DHT22;34689;51.644;5.618;2022-08-21T08:11:21;18.10;99.90
48876;DHT22;34689;51.644;5.618;2022-08-21T08:13:50;18.20;99.90
48876;DHT22;34689;51.644;5.618;2022-08-21T08:16:16;18.20;99.90
48876;DHT22;34689;51.644;5.618;2022-08-21T08:18:42;18.30;99.90
48876;DHT22;34689;51.644;5.618;2022-08-21T08:21:09;18.30;99.90
48876;DHT22;34689;51.644;5.618;2022-08-21T08:23:35;18.40;99.90
48876;DHT22;34689;51.644;5.618;2022-08-21T08:26:01;18.50;99.90
48876;DHT22;34689;51.644;5.618;2022-08-21T08:28:29;18.50;99.90
48876;DHT22;34689;51.644;5.618;2022-08-21T08:30:58;18.60;99.90
48876;DHT22;34689;51.644;5.618;2022-08-21T08:33:24;18.70;99.90
48876;DHT22;34689;51.644;5.618;2022-08-21T08:35:50;18.70;99.90
48876;DHT22;34689;51.644;5.618;2022-08-21T08:38:19;18.80;99.90
48876;DHT22;34689;51.644;5.618;2022-08-21T08:43:28;18.90;99.90
48876;DHT22;34689;51.644;5.618;2022-08-21T08:45:55;18.90;99.90
48876;DHT22;34689;51.644;5.618;2022-08-21T08:48:46;19.00;99.90
48876;DHT22;34689;51.644;5.618;2022-08-21T08:51:27;19.00;99.90
48876;DHT22;34689;51.644;5.618;2022-08-21T08:54:01;19.10;99.90
48876;DHT22;34689;51.644;5.618;2022-08-21T08:56:31;19.10;99.90
48876;DHT22;34689;51.644;5.618;2022-08-21T08:59:02;19.20;99.90
48876;DHT22;34689;51.644;5.618;2022-08-21T09:01:32;19.20;99.90
48876;DHT22;34689;51.644;5.618;2022-08-21T09:03:58;19.30;99.90
48876;DHT22;34689;51.644;5.618;2022-08-21T09:06:45;19.30;99.80
48876;DHT22;34689;51.644;5.618;2022-08-21T09:12:06;19.50;99.70
48876;DHT22;34689;51.644;5.618;2022-08-21T09:14:50;19.60;99.60
48876;DHT22;34689;51.644;5.618;2022-08-21T09:28:16;20.00;98.90
48876;DHT22;34689;51.644;5.618;2022-08-21T09:30:42;20.00;98.70
48876;DHT22;34689;51.644;5.618;2022-08-21T09:33:12;20.10;98.70
48876;DHT22;34689;51.644;5.618;2022-08-21T09:35:54;20.10;98.60
48876;DHT22;34689;51.644;5.618;2022-08-21T09:41:03;20.30;98.60
48876;DHT22;34689;51.644;5.618;2022-08-21T09:43:30;20.40;98.30
48876;DHT22;34689;51.644;5.618;2022-08-21T09:46:08;20.50;98.30
48876;DHT22;34689;51.644;5.618;2022-08-21T09:48:48;20.60;98.20
48876;DHT22;34689;51.644;5.618;2022-08-21T09:51:20;20.70;98.00
48876;DHT22;34689;51.644;5.618;2022-08-21T09:53:49;20.80;97.70
48876;DHT22;34689;51.644;5.618;2022-08-21T09:56:40;20.90;97.10
48876;DHT22;34689;51.644;5.618;2022-08-21T09:59:35;21.10;97.40
48876;DHT22;34689;51.644;5.618;2022-08-21T10:02:27;21.50;96.90
48876;DHT22;34689;51.644;5.618;2022-08-21T10:05:24;22.30;95.90
48876;DHT22;34689;51.644;5.618;2022-08-21T10:07:50;24.00;93.90
48876;DHT22;34689;51.644;5.618;2022-08-21T10:10:24;24.90;92.80
48876;DHT22;34689;51.644;5.618;2022-08-21T10:16:15;27.80;85.80
48876;DHT22;34689;51.644;5.618;2022-08-21T10:35:30;26.60;85.90
48876;DHT22;34689;51.644;5.618;2022-08-21T10:46:42;24.30;91.80
48876;DHT22;34689;51.644;5.618;2022-08-21T10:49:44;24.00;92.30
48876;DHT22;34689;51.644;5.618;2022-08-21T10:57:56;23.40;92.70
48876;DHT22;34689;51.644;5.618;2022-08-21T11:00:27;23.30;92.50
48876;DHT22;34689;51.644;5.618;2022-08-21T11:05:31;23.10;92.90
48876;DHT22;34689;51.644;5.618;2022-08-21T11:08:04;23.10;92.90
48876;DHT22;34689;51.644;5.618;2022-08-21T11:10:48;23.00;92.80
48876;DHT22;34689;51.644;5.618;2022-08-21T11:19:33;22.80;92.90
48876;DHT22;34689;51.644;5.618;2022-08-21T11:24:50;22.60;93.10
48876;DHT22;34689;51.644;5.618;2022-08-21T11:27:52;22.60;93.00
48876;DHT22;34689;51.644;5.618;2022-08-21T11:30:18;22.50;92.80
48876;DHT22;34689;51.644;5.618;2022-08-21T11:33:22;22.50;92.90
48876;DHT22;34689;51.644;5.618;2022-08-21T11:36:00;22.50;92.40
48876;DHT22;34689;51.644;5.618;2022-08-21T11:38:46;22.50;92.80
48876;DHT22;34689;51.644;5.618;2022-08-21T11:50:27;22.50;92.50
48876;DHT22;34689;51.644;5.618;2022-08-21T11:53:17;22.60;92.40
48876;DHT22;34689;51.644;5.618;2022-08-21T11:55:47;22.60;92.10
48876;DHT22;34689;51.644;5.618;2022-08-21T11:58:27;22.70;92.10
48876;DHT22;34689;51.644;5.618;2022-08-21T12:01:03;22.70;92.00
48876;DHT22;34689;51.644;5.618;2022-08-21T12:03:40;22.80;91.80
48876;DHT22;34689;51.644;5.618;2022-08-21T12:06:13;22.80;91.60
48876;DHT22;34689;51.644;5.618;2022-08-21T12:08:43;22.80;91.70
48876;DHT22;34689;51.644;5.618;2022-08-21T12:11:22;22.80;91.70
48876;DHT22;34689;51.644;5.618;2022-08-21T12:13:58;22.80;91.50
48876;DHT22;34689;51.644;5.618;2022-08-21T12:16:37;22.70;91.70
48876;DHT22;34689;51.644;5.618;2022-08-21T12:24:42;22.60;91.60
48876;DHT22;34689;51.644;5.618;2022-08-21T12:27:30;22.70;91.60
48876;DHT22;34689;51.644;5.618;2022-08-21T12:30:04;22.60;91.40
48876;DHT22;34689;51.644;5.618;2022-08-21T12:32:46;22.60;91.50
48876;DHT22;34689;51.644;5.618;2022-08-21T12:35:24;22.70;91.20
48876;DHT22;34689;51.644;5.618;2022-08-21T12:40:46;22.80;91.10
48876;DHT22;34689;51.644;5.618;2022-08-21T12:43:48;22.80;91.00
48876;DHT22;34689;51.644;5.618;2022-08-21T12:46:06;22.90;91.10
48876;DHT22;34689;51.644;5.618;2022-08-21T12:48:43;22.90;91.00
48876;DHT22;34689;51.644;5.618;2022-08-21T12:51:16;22.80;91.10
48876;DHT22;34689;51.644;5.618;2022-08-21T12:54:02;22.80;91.30
48876;DHT22;34689;51.644;5.618;2022-08-21T12:56:30;22.70;91.30
48876;DHT22;34689;51.644;5.618;2022-08-21T12:59:02;22.70;91.50
48876;DHT22;34689;51.644;5.618;2022-08-21T13:01:37;22.70;91.50
48876;DHT22;34689;51.644;5.618;2022-08-21T13:04:19;22.70;91.60
48876;DHT22;34689;51.644;5.618;2022-08-21T13:06:50;22.70;91.50
48876;DHT22;34689;51.644;5.618;2022-08-21T13:09:20;22.70;90.80
48876;DHT22;34689;51.644;5.618;2022-08-21T13:11:48;22.60;91.50
48876;DHT22;34689;51.644;5.618;2022-08-21T13:14:30;22.70;91.30
48876;DHT22;34689;51.644;5.618;2022-08-21T13:16:58;22.80;91.00
48876;DHT22;34689;51.644;5.618;2022-08-21T13:19:24;22.80;91.20
48876;DHT22;34689;51.644;5.618;2022-08-21T13:21:51;22.90;91.10
48876;DHT22;34689;51.644;5.618;2022-08-21T13:24:22;22.90;90.80
48876;DHT22;34689;51.644;5.618;2022-08-21T13:26:48;23.00;90.60
48876;DHT22;34689;51.644;5.618;2022-08-21T13:29:17;23.10;90.50
48876;DHT22;34689;51.644;5.618;2022-08-21T13:31:49;23.10;90.10
48876;DHT22;34689;51.644;5.618;2022-08-21T13:34:22;23.30;89.50
48876;DHT22;34689;51.644;5.618;2022-08-21T13:36:52;23.30;89.40
48876;DHT22;34689;51.644;5.618;2022-08-21T13:39:20;23.30;88.60
48876;DHT22;34689;51.644;5.618;2022-08-21T13:41:50;23.40;88.80
48876;DHT22;34689;51.644;5.618;2022-08-21T13:44:44;23.40;88.80
48876;DHT22;34689;51.644;5.618;2022-08-21T13:47:12;23.30;88.80
48876;DHT22;34689;51.644;5.618;2022-08-21T13:49:47;23.40;88.30
48876;DHT22;34689;51.644;5.618;2022-08-21T13:54:59;23.50;87.50
48876;DHT22;34689;51.644;5.618;2022-08-21T13:57:34;23.50;86.90
48876;DHT22;34689;51.644;5.618;2022-08-21T14:00:20;23.60;87.10
48876;DHT22;34689;51.644;5.618;2022-08-21T14:02:51;23.60;86.80
48876;DHT22;34689;51.644;5.618;2022-08-21T14:05:26;23.60;87.50
48876;DHT22;34689;51.644;5.618;2022-08-21T14:08:08;23.60;87.50
48876;DHT22;34689;51.644;5.618;2022-08-21T14:10:46;23.60;87.20
48876;DHT22;34689;51.644;5.618;2022-08-21T14:13:42;23.70;87.30
48876;DHT22;34689;51.644;5.618;2022-08-21T14:16:19;23.70;87.50
48876;DHT22;34689;51.644;5.618;2022-08-21T14:21:42;23.50;87.50
48876;DHT22;34689;51.644;5.618;2022-08-21T14:26:49;23.60;87.30
48876;DHT22;34689;51.644;5.618;2022-08-21T14:29:16;23.60;86.90
48876;DHT22;34689;51.644;5.618;2022-08-21T14:31:48;23.70;86.80
48876;DHT22;34689;51.644;5.618;2022-08-21T14:34:14;23.70;86.30
48876;DHT22;34689;51.644;5.618;2022-08-21T14:36:44;23.80;86.30
48876;DHT22;34689;51.644;5.618;2022-08-21T14:39:10;23.80;86.30
48876;DHT22;34689;51.644;5.618;2022-08-21T14:41:37;23.80;86.20
48876;DHT22;34689;51.644;5.618;2022-08-21T14:44:04;23.80;86.50
48876;DHT22;34689;51.644;5.618;2022-08-21T14:46:31;23.80;86.00
48876;DHT22;34689;51.644;5.618;2022-08-21T14:48:59;23.80;85.90
48876;DHT22;34689;51.644;5.618;2022-08-21T14:51:25;23.80;85.60
48876;DHT22;34689;51.644;5.618;2022-08-21T14:53:50;23.80;85.40
48876;DHT22;34689;51.644;5.618;2022-08-21T14:56:16;23.80;84.90
48876;DHT22;34689;51.644;5.618;2022-08-21T14:58:46;23.80;85.00
48876;DHT22;34689;51.644;5.618;2022-08-21T15:01:15;23.90;84.60
48876;DHT22;34689;51.644;5.618;2022-08-21T15:03:44;23.90;84.60
48876;DHT22;34689;51.644;5.618;2022-08-21T15:06:10;24.00;84.10
48876;DHT22;34689;51.644;5.618;2022-08-21T15:08:36;24.00;84.20
48876;DHT22;34689;51.644;5.618;2022-08-21T15:11:03;24.00;83.70
48876;DHT22;34689;51.644;5.618;2022-08-21T15:13:29;24.00;83.70
48876;DHT22;34689;51.644;5.618;2022-08-21T15:15:56;24.00;83.40
48876;DHT22;34689;51.644;5.618;2022-08-21T15:18:26;24.00;83.70
48876;DHT22;34689;51.644;5.618;2022-08-21T15:20:52;24.10;83.20
48876;DHT22;34689;51.644;5.618;2022-08-21T15:23:18;24.10;83.70
48876;DHT22;34689;51.644;5.618;2022-08-21T15:25:46;24.00;83.20
48876;DHT22;34689;51.644;5.618;2022-08-21T15:28:14;24.10;83.40
48876;DHT22;34689;51.644;5.618;2022-08-21T15:30:41;24.00;83.70
48876;DHT22;34689;51.644;5.618;2022-08-21T15:33:07;24.00;83.40
48876;DHT22;34689;51.644;5.618;2022-08-21T15:35:33;24.00;83.70
48876;DHT22;34689;51.644;5.618;2022-08-21T15:37:59;23.90;83.70
48876;DHT22;34689;51.644;5.618;2022-08-21T15:40:25;23.90;83.60
48876;DHT22;34689;51.644;5.618;2022-08-21T15:42:57;23.90;83.70
48876;DHT22;34689;51.644;5.618;2022-08-21T15:45:26;23.80;83.60
48876;DHT22;34689;51.644;5.618;2022-08-21T15:47:52;23.80;83.90
48876;DHT22;34689;51.644;5.618;2022-08-21T15:50:21;23.70;83.90
48876;DHT22;34689;51.644;5.618;2022-08-21T15:52:47;23.70;83.90
48876;DHT22;34689;51.644;5.618;2022-08-21T15:55:13;23.70;83.90
48876;DHT22;34689;51.644;5.618;2022-08-21T15:57:48;23.70;83.90
48876;DHT22;34689;51.644;5.618;2022-08-21T16:00:22;23.60;83.90
48876;DHT22;34689;51.644;5.618;2022-08-21T16:02:55;23.60;83.90
48876;DHT22;34689;51.644;5.618;2022-08-21T16:05:21;23.60;84.20
48876;DHT22;34689;51.644;5.618;2022-08-21T16:07:48;23.60;84.20
48876;DHT22;34689;51.644;5.618;2022-08-21T16:10:17;23.50;84.10
48876;DHT22;34689;51.644;5.618;2022-08-21T16:12:57;23.50;84.20
48876;DHT22;34689;51.644;5.618;2022-08-21T16:15:23;23.40;84.30
48876;DHT22;34689;51.644;5.618;2022-08-21T16:17:51;23.40;84.60
48876;DHT22;34689;51.644;5.618;2022-08-21T16:20:22;23.40;84.80
48876;DHT22;34689;51.644;5.618;2022-08-21T16:22:50;23.40;85.00
48876;DHT22;34689;51.644;5.618;2022-08-21T16:25:19;23.30;85.20
48876;DHT22;34689;51.644;5.618;2022-08-21T16:27:48;23.30;85.40
48876;DHT22;34689;51.644;5.618;2022-08-21T16:30:15;23.30;85.50
48876;DHT22;34689;51.644;5.618;2022-08-21T16:32:42;23.30;85.60
48876;DHT22;34689;51.644;5.618;2022-08-21T16:35:11;23.30;85.60
48876;DHT22;34689;51.644;5.618;2022-08-21T16:37:38;23.30;85.50
48876;DHT22;34689;51.644;5.618;2022-08-21T16:40:04;23.30;85.70
48876;DHT22;34689;51.644;5.618;2022-08-21T16:42:32;23.30;85.80
48876;DHT22;34689;51.644;5.618;2022-08-21T16:44:59;23.30;85.70
48876;DHT22;34689;51.644;5.618;2022-08-21T16:47:27;23.30;85.80
48876;DHT22;34689;51.644;5.618;2022-08-21T16:49:53;23.30;85.50
48876;DHT22;34689;51.644;5.618;2022-08-21T16:52:19;23.30;85.70
48876;DHT22;34689;51.644;5.618;2022-08-21T16:54:45;23.20;85.80
48876;DHT22;34689;51.644;5.618;2022-08-21T16:57:10;23.20;85.80
48876;DHT22;34689;51.644;5.618;2022-08-21T16:59:37;23.20;85.80
48876;DHT22;34689;51.644;5.618;2022-08-21T17:02:03;23.20;85.90
48876;DHT22;34689;51.644;5.618;2022-08-21T17:04:32;23.20;86.00
48876;DHT22;34689;51.644;5.618;2022-08-21T17:06:57;23.20;86.00
48876;DHT22;34689;51.644;5.618;2022-08-21T17:09:23;23.20;86.20
48876;DHT22;34689;51.644;5.618;2022-08-21T17:11:49;23.10;86.30
48876;DHT22;34689;51.644;5.618;2022-08-21T17:14:18;23.10;86.50
48876;DHT22;34689;51.644;5.618;2022-08-21T17:16:47;23.10;86.70
48876;DHT22;34689;51.644;5.618;2022-08-21T17:19:14;23.00;86.70